Time;durP1;ratioP1;P1;durP2;ratioP2;P2;SDS_P1;SDS_P2;PMS_P1;PMS_P2;Temp;Humidity;BMP_temperature;BMP_pressure;BME280_temperature;BME280_humidity;BME280_pressure;Samples;Min_cycle;Max_cycle;Signal;HPM_P1;HPM_P2
2023/05/27 00:00:14;;;;;;;8.38;4.45;;;;;;;15.08;78.37;94020.31;5147992;27;20269;-87
2023/05/27 00:02:40;;;;;;;9.23;5.20;;;;;;;15.04;78.99;94020.22;5147972;27;20023;-87
2023/05/27 00:05:06;;;;;;;12.38;5.75;;;;;;;15.08;79.15;94023.00;5147921;27;20048;-87
2023/05/27 00:07:31;;;;;;;22.33;7.38;;;;;;;14.93;79.96;94033.31;5129905;27;20190;-87
2023/05/27 00:09:57;;;;;;;11.32;8.00;;;;;;;14.91;80.91;94032.09;5129847;27;20027;-87
2023/05/27 00:12:22;;;;;;;15.18;8.70;;;;;;;14.81;81.40;94042.13;5148071;27;20206;-87
2023/05/27 00:14:48;;;;;;;12.45;8.63;;;;;;;14.73;82.05;94042.25;5129707;27;20331;-86
2023/05/27 00:17:13;;;;;;;13.55;9.27;;;;;;;14.69;82.55;94049.41;5147743;27;20057;-87
2023/05/27 00:19:40;;;;;;;16.73;9.07;;;;;;;14.69;82.62;94041.34;5147603;27;20203;-87
2023/05/27 00:22:06;;;;;;;18.65;9.23;;;;;;;14.67;82.50;94044.34;5147831;27;20035;-87
2023/05/27 00:24:34;;;;;;;13.23;8.85;;;;;;;14.59;82.84;94040.69;5129334;27;20073;-87
2023/05/27 00:27:01;;;;;;;16.25;9.05;;;;;;;14.59;82.81;94040.69;5147784;27;20019;-87
2023/05/27 00:29:27;;;;;;;14.13;9.05;;;;;;;14.51;82.97;94038.84;5147479;27;20313;-87
2023/05/27 00:31:52;;;;;;;13.38;9.18;;;;;;;14.43;83.21;94015.56;5147198;27;20015;-85
2023/05/27 00:34:17;;;;;;;11.77;8.50;;;;;;;14.34;83.41;94022.94;5146828;27;20053;-84
2023/05/27 00:36:43;;;;;;;17.00;9.75;;;;;;;14.26;83.86;94016.56;5128628;27;20034;-84
2023/05/27 00:39:08;;;;;;;22.05;10.65;;;;;;;14.25;84.32;94002.38;5146931;27;20023;-84
2023/05/27 00:41:34;;;;;;;16.27;9.57;;;;;;;14.25;84.46;94002.38;5146813;27;20037;-84
2023/05/27 00:44:02;;;;;;;11.50;7.32;;;;;;;14.24;84.50;93992.75;5146630;27;20275;-85
2023/05/27 00:46:27;;;;;;;9.07;5.10;;;;;;;14.25;83.45;93996.25;5146861;27;20031;-85
2023/05/27 00:48:54;;;;;;;7.00;4.68;;;;;;;14.31;82.82;93986.06;5146957;27;20050;-84
2023/05/27 00:51:20;;;;;;;4.75;3.30;;;;;;;14.32;81.60;93977.69;5147265;27;20079;-88
2023/05/27 00:53:46;;;;;;;4.35;2.80;;;;;;;14.39;81.54;93969.09;5146792;27;20023;-85
2023/05/27 00:56:15;;;;;;;3.88;2.17;;;;;;;14.45;79.47;93981.19;5146876;27;20109;-85
2023/05/27 00:58:41;;;;;;;3.55;1.70;;;;;;;14.53;78.72;93966.09;5145755;27;20019;-85
2023/05/27 01:01:07;;;;;;;3.95;1.88;;;;;;;14.61;78.24;93966.03;5128370;27;20055;-85
2023/05/27 01:03:34;;;;;;;2.92;1.80;;;;;;;14.66;77.68;93964.25;5128133;27;20301;-85
2023/05/27 01:06:32;;;;;;;1.92;1.30;;;;;;;14.76;77.11;93963.78;5128245;27;20023;-85
2023/05/27 01:09:14;;;;;;;4.65;1.27;;;;;;;14.83;76.16;93955.94;5112963;27;20062;-85
2023/05/27 01:11:58;;;;;;;6.07;1.60;;;;;;;14.91;76.56;93949.66;5145992;27;20019;-83
2023/05/27 01:14:25;;;;;;;2.40;1.60;;;;;;;14.98;77.15;93944.53;5146192;27;20080;-82
2023/05/27 01:16:55;;;;;;;2.30;1.38;;;;;;;14.97;78.06;93940.25;5146255;27;20050;-82
2023/05/27 01:19:30;;;;;;;2.45;1.40;;;;;;;14.91;77.86;93935.47;5146139;27;20022;-83
2023/05/27 01:21:58;;;;;;;3.45;1.15;;;;;;;14.96;77.27;93941.41;5145944;27;20157;-85
2023/05/27 01:24:24;;;;;;;2.45;1.30;;;;;;;14.98;75.73;93936.47;5145920;27;20332;-83
2023/05/27 01:26:50;;;;;;;2.83;1.50;;;;;;;15.04;75.52;93935.13;5146212;27;20026;-84
2023/05/27 01:29:15;;;;;;;3.13;1.58;;;;;;;15.10;76.79;93938.34;5145847;27;20060;-83
2023/05/27 01:31:51;;;;;;;2.80;1.63;;;;;;;15.16;77.53;93922.78;5146321;27;20019;-89
2023/05/27 01:34:23;;;;;;;2.78;1.65;;;;;;;15.14;77.02;93920.44;5146393;27;20015;-89
2023/05/27 01:36:55;;;;;;;9.65;2.60;;;;;;;15.13;76.92;93926.16;5146620;27;20090;-89
2023/05/27 01:39:22;;;;;;;4.88;2.20;;;;;;;15.12;77.79;93921.88;5146753;27;20090;-86
2023/05/27 01:41:50;;;;;;;8.20;2.00;;;;;;;15.12;78.55;93919.19;5146285;27;20037;-88
2023/05/27 01:44:17;;;;;;;3.28;1.85;;;;;;;15.04;78.77;93919.00;5128049;27;20021;-89
2023/05/27 01:46:44;;;;;;;6.00;1.70;;;;;;;15.03;77.42;93919.34;5128129;27;20030;-86
2023/05/27 01:49:09;;;;;;;2.90;1.70;;;;;;;15.00;77.94;93914.66;5145908;27;20019;-84
2023/05/27 01:51:36;;;;;;;4.10;2.00;;;;;;;14.96;78.71;93919.94;5145360;27;20068;-84
2023/05/27 01:54:02;;;;;;;5.72;1.90;;;;;;;14.90;79.19;93929.34;5145395;27;20090;-84
2023/05/27 01:56:27;;;;;;;3.83;2.13;;;;;;;14.85;79.37;93926.88;5145505;27;20018;-84
2023/05/27 01:58:53;;;;;;;7.90;2.30;;;;;;;14.78;79.55;93924.75;5145275;27;20269;-84
2023/05/27 02:01:18;;;;;;;4.57;2.15;;;;;;;14.75;79.43;93927.31;5145518;27;20090;-84
2023/05/27 02:03:44;;;;;;;2.90;1.70;;;;;;;14.68;79.64;93921.75;5145025;27;20022;-84
2023/05/27 02:06:10;;;;;;;3.03;2.05;;;;;;;14.63;79.35;93928.13;5145251;27;20090;-83
2023/05/27 02:08:35;;;;;;;3.50;2.00;;;;;;;14.58;79.53;93923.75;5144931;27;20034;-83
2023/05/27 02:11:01;;;;;;;3.28;2.10;;;;;;;14.54;80.35;93936.25;5126628;27;20015;-83
2023/05/27 02:13:26;;;;;;;3.95;1.85;;;;;;;14.51;80.42;93939.63;5126388;27;20090;-83
2023/05/27 02:15:52;;;;;;;7.25;2.58;;;;;;;14.48;80.71;93939.50;5145523;27;20026;-85
2023/05/27 02:18:20;;;;;;;7.90;1.90;;;;;;;14.44;80.96;93929.44;5145631;27;20015;-86
2023/05/27 02:20:46;;;;;;;2.92;1.88;;;;;;;14.37;81.05;93925.75;5144853;27;20039;-84
2023/05/27 02:23:12;;;;;;;3.38;2.00;;;;;;;14.27;81.23;93926.19;5144760;27;20411;-85
2023/05/27 02:25:37;;;;;;;3.17;1.85;;;;;;;14.21;81.18;93933.69;5145348;27;20090;-86
2023/05/27 02:28:03;;;;;;;4.95;1.95;;;;;;;14.21;80.79;93929.09;5144808;27;20026;-85
2023/05/27 02:30:30;;;;;;;2.50;1.60;;;;;;;14.20;80.96;93922.16;5144708;27;20023;-84
2023/05/27 02:32:57;;;;;;;3.47;1.73;;;;;;;14.18;80.54;93919.03;5144767;27;20027;-84
2023/05/27 02:35:54;;;;;;;4.82;1.98;;;;;;;14.16;80.66;93929.31;5144443;27;20019;-84
2023/05/27 02:38:20;;;;;;;3.67;1.95;;;;;;;14.12;80.80;93925.72;5120107;27;20098;-87
2023/05/27 02:40:45;;;;;;;4.63;2.22;;;;;;;14.10;80.99;93933.31;5144440;27;20023;-87
2023/05/27 02:43:11;;;;;;;4.55;2.33;;;;;;;14.13;80.97;93940.69;5144039;27;20213;-88
2023/05/27 02:45:36;;;;;;;7.85;2.53;;;;;;;14.14;81.04;93936.13;5126640;27;20125;-87
2023/05/27 02:48:02;;;;;;;3.55;2.05;;;;;;;14.14;80.85;93936.88;5145009;27;20027;-87
2023/05/27 02:50:28;;;;;;;3.95;2.05;;;;;;;14.17;81.61;93938.16;5144813;27;20049;-87
2023/05/27 02:52:53;;;;;;;5.30;2.67;;;;;;;14.16;81.08;93940.03;5126674;27;20027;-87
2023/05/27 02:55:19;;;;;;;5.88;2.70;;;;;;;14.17;79.61;93932.78;5145213;27;20220;-88
2023/05/27 02:57:45;;;;;;;5.70;2.42;;;;;;;14.20;79.95;93926.75;5144783;27;20096;-88
2023/05/27 03:00:13;;;;;;;3.15;1.90;;;;;;;14.22;79.13;93930.66;5144682;27;20027;-88
2023/05/27 03:02:38;;;;;;;5.20;2.53;;;;;;;14.24;77.86;93927.63;5144366;27;20019;-84
2023/05/27 03:05:05;;;;;;;8.20;2.13;;;;;;;14.24;77.70;93917.69;5125629;27;20039;-84
2023/05/27 03:07:30;;;;;;;3.53;1.77;;;;;;;14.28;77.81;93919.72;5144098;27;20072;-84
2023/05/27 03:09:56;;;;;;;4.90;1.83;;;;;;;14.26;78.14;93925.41;5143772;27;20027;-85
2023/05/27 03:12:22;;;;;;;6.95;2.80;;;;;;;14.33;78.47;93927.53;5144002;27;20217;-88
2023/05/27 03:14:48;;;;;;;4.57;3.25;;;;;;;14.32;79.81;93925.97;5143943;27;20096;-85
2023/05/27 03:17:14;;;;;;;7.45;2.20;;;;;;;14.34;80.32;93923.75;5144094;27;20039;-84
2023/05/27 03:19:39;;;;;;;3.72;2.47;;;;;;;14.36;81.10;93924.19;5142960;27;20027;-84
2023/05/27 03:22:06;;;;;;;4.07;2.45;;;;;;;14.37;80.40;93931.09;5142818;27;20019;-84
2023/05/27 03:24:33;;;;;;;4.82;2.40;;;;;;;14.37;78.67;93928.41;5142863;27;20027;-83
2023/05/27 03:26:59;;;;;;;6.07;2.53;;;;;;;14.36;78.79;93916.91;5143709;28;20084;-83
2023/05/27 03:29:24;;;;;;;7.85;2.83;;;;;;;14.37;78.63;93936.47;5125502;28;20096;-84
2023/05/27 03:31:50;;;;;;;5.35;2.60;;;;;;;14.38;78.87;93938.03;5125924;28;20025;-84
2023/05/27 03:34:15;;;;;;;6.43;2.83;;;;;;;14.42;79.16;93941.63;5144176;28;20066;-88
2023/05/27 03:36:42;;;;;;;5.55;2.95;;;;;;;14.44;79.62;93947.44;5126154;28;20023;-88
2023/05/27 03:39:08;;;;;;;5.47;2.60;;;;;;;14.48;80.05;93936.81;5144215;28;20027;-86
2023/05/27 03:41:34;;;;;;;3.20;2.05;;;;;;;14.51;80.26;93941.50;5144412;28;20023;-87
2023/05/27 03:44:00;;;;;;;5.95;2.50;;;;;;;14.54;79.68;93946.22;5144437;28;20078;-87
2023/05/27 03:46:25;;;;;;;4.32;2.75;;;;;;;14.54;78.65;93946.22;5144501;28;20025;-88
2023/05/27 03:48:51;;;;;;;10.82;3.05;;;;;;;14.54;79.22;93946.97;5144729;28;20083;-88
2023/05/27 03:51:16;;;;;;;4.03;2.55;;;;;;;14.57;78.35;93948.22;5125595;28;20250;-83
2023/05/27 03:53:42;;;;;;;7.43;2.78;;;;;;;14.59;77.30;93954.84;5143229;28;20225;-83
2023/05/27 03:56:07;;;;;;;5.45;2.53;;;;;;;14.56;77.32;93944.00;5143439;28;20075;-84
2023/05/27 03:58:32;;;;;;;5.43;2.55;;;;;;;14.54;77.65;93952.34;5143993;28;20014;-87
2023/05/27 04:00:58;;;;;;;5.75;2.83;;;;;;;14.50;77.07;93946.09;5144138;28;20322;-87
2023/05/27 04:03:23;;;;;;;6.15;2.10;;;;;;;14.47;77.90;93946.78;5144009;28;20022;-83
2023/05/27 04:05:49;;;;;;;4.70;2.60;;;;;;;14.48;77.96;93953.69;5143685;28;20090;-84
2023/05/27 04:08:14;;;;;;;3.67;2.42;;;;;;;14.44;78.95;93952.78;5143622;28;20030;-85
2023/05/27 04:10:40;;;;;;;6.07;2.35;;;;;;;14.47;79.84;93945.97;5143502;28;20078;-85
2023/05/27 04:13:05;;;;;;;3.88;2.13;;;;;;;14.44;80.17;93942.84;5143767;28;20086;-89
2023/05/27 04:15:31;;;;;;;6.15;2.97;;;;;;;14.48;80.83;93948.31;5144903;28;20373;-88
2023/05/27 04:17:57;;;;;;;3.90;2.45;;;;;;;14.52;80.48;93951.91;5143978;28;20046;-87
2023/05/27 04:20:23;;;;;;;4.32;2.60;;;;;;;14.59;80.80;93948.69;5144852;28;20019;-88
2023/05/27 04:22:48;;;;;;;5.13;3.03;;;;;;;14.64;80.91;93946.56;5143593;28;20043;-86
2023/05/27 04:25:14;;;;;;;4.93;2.88;;;;;;;14.71;81.00;93956.72;5143933;28;20345;-85
2023/05/27 04:27:39;;;;;;;4.95;2.15;;;;;;;14.78;80.17;93953.50;5125128;28;20011;-87
2023/05/27 04:30:06;;;;;;;3.90;2.25;;;;;;;14.82;76.91;93954.38;5143631;28;20309;-87
2023/05/27 04:32:32;;;;;;;4.90;2.22;;;;;;;14.87;76.24;93948.78;5144157;27;20132;-86
2023/05/27 04:34:59;;;;;;;3.97;2.50;;;;;;;14.92;76.04;93948.56;5146975;27;20047;-83
2023/05/27 04:37:28;;;;;;;3.45;2.35;;;;;;;15.00;75.90;93944.16;5147219;27;20034;-83
2023/05/27 04:39:56;;;;;;;3.65;2.10;;;;;;;15.04;75.69;93956.59;5147634;27;20027;-87
2023/05/27 04:42:23;;;;;;;8.60;2.55;;;;;;;15.08;76.08;93950.53;5147318;27;20023;-86
2023/05/27 04:44:50;;;;;;;3.85;2.38;;;;;;;15.20;76.32;93958.56;5145933;27;20022;-86
2023/05/27 04:47:16;;;;;;;6.15;2.28;;;;;;;15.24;76.37;93962.13;5145324;27;20015;-86
2023/05/27 04:49:41;;;;;;;4.53;2.10;;;;;;;15.28;76.69;93952.28;5145598;27;20164;-87
2023/05/27 04:52:07;;;;;;;3.70;2.15;;;;;;;15.25;77.27;93953.75;5145361;27;20431;-88
2023/05/27 04:54:33;;;;;;;2.83;1.40;;;;;;;15.28;77.89;93962.25;5145445;27;20280;-87
2023/05/27 04:56:59;;;;;;;8.63;2.75;;;;;;;15.30;78.39;93966.13;5145638;27;20094;-88
2023/05/27 04:59:35;;;;;;;5.80;2.20;;;;;;;15.32;77.69;93969.25;5146333;27;20015;-86
2023/05/27 05:02:10;;;;;;;5.15;2.00;;;;;;;15.28;77.62;93963.00;5146605;27;20082;-86
2023/05/27 05:04:37;;;;;;;4.32;2.03;;;;;;;15.24;78.11;93962.13;5145492;27;20019;-88
2023/05/27 05:07:03;;;;;;;3.08;1.90;;;;;;;15.25;77.89;93964.47;5145355;27;20011;-86
2023/05/27 05:09:29;;;;;;;5.00;2.08;;;;;;;15.21;77.93;93963.59;5144475;27;20082;-85
2023/05/27 05:11:55;;;;;;;4.50;2.33;;;;;;;15.24;78.37;93962.13;5126701;27;20075;-84
2023/05/27 05:14:20;;;;;;;4.60;1.90;;;;;;;15.22;78.01;93959.81;5144816;27;20018;-84
2023/05/27 05:16:46;;;;;;;4.70;2.00;;;;;;;15.22;78.97;93967.06;5126770;27;20023;-85
2023/05/27 05:19:12;;;;;;;3.30;2.00;;;;;;;15.28;78.90;93967.59;5128132;27;20284;-85
2023/05/27 05:21:38;;;;;;;3.83;1.95;;;;;;;15.25;78.46;93967.16;5146128;27;20041;-83
2023/05/27 05:24:04;;;;;;;3.75;2.65;;;;;;;15.24;79.01;93968.31;5146019;27;20039;-84
2023/05/27 05:26:29;;;;;;;11.15;3.22;;;;;;;15.26;78.00;93973.31;5146038;27;20251;-84
2023/05/27 05:28:55;;;;;;;7.88;3.20;;;;;;;15.28;77.90;93976.44;5149581;27;20019;-83
2023/05/27 05:31:24;;;;;;;5.97;3.00;;;;;;;15.29;78.49;93972.66;5135470;27;20023;-83
2023/05/27 05:33:50;;;;;;;9.40;5.78;;;;;;;15.34;79.34;93975.06;5153171;27;20045;-83
2023/05/27 05:36:18;;;;;;;7.18;5.40;;;;;;;15.43;79.36;93981.09;5133559;27;20050;-86
2023/05/27 05:38:47;;;;;;;9.75;3.10;;;;;;;15.50;79.27;93980.53;5133022;27;20098;-84
2023/05/27 05:41:12;;;;;;;3.70;2.50;;;;;;;15.65;79.69;93993.25;5149383;27;20290;-84
2023/05/27 05:43:38;;;;;;;6.15;2.83;;;;;;;15.70;77.74;93986.84;5149444;27;20033;-84
2023/05/27 05:46:03;;;;;;;9.25;3.20;;;;;;;15.78;78.17;93985.94;5133363;27;20027;-87
2023/05/27 05:48:29;;;;;;;4.47;2.80;;;;;;;15.78;77.47;93975.19;5148747;27;20026;-84
2023/05/27 05:50:54;;;;;;;3.65;2.53;;;;;;;15.84;78.76;93979.19;5146481;27;20316;-84
2023/05/27 05:53:20;;;;;;;6.72;3.00;;;;;;;15.82;76.98;93980.66;5145880;27;20019;-86
2023/05/27 05:55:45;;;;;;;4.20;2.33;;;;;;;15.80;77.19;93983.69;5128730;27;20019;-84
2023/05/27 05:58:11;;;;;;;6.32;2.80;;;;;;;15.77;77.59;93984.38;5147979;27;20027;-83
2023/05/27 06:00:36;;;;;;;4.93;2.17;;;;;;;15.77;76.68;93989.75;5147123;27;20011;-83
2023/05/27 06:03:01;;;;;;;4.72;2.20;;;;;;;15.69;75.87;93995.22;5145353;27;20038;-85
2023/05/27 06:05:27;;;;;;;4.75;2.00;;;;;;;15.70;76.83;93994.91;5126574;27;20052;-82
2023/05/27 06:07:53;;;;;;;5.65;2.42;;;;;;;15.75;76.67;93991.22;5145622;27;20205;-81
2023/05/27 06:10:19;;;;;;;3.67;2.40;;;;;;;15.71;76.20;93996.44;5145573;27;20317;-82
2023/05/27 06:12:44;;;;;;;4.03;2.38;;;;;;;15.70;76.45;93999.50;5145541;27;20044;-82
2023/05/27 06:15:10;;;;;;;7.35;3.35;;;;;;;15.78;76.42;94003.97;5144917;27;20030;-85
2023/05/27 06:17:36;;;;;;;8.02;2.95;;;;;;;15.79;75.77;94002.84;5145150;27;20023;-81
2023/05/27 06:20:01;;;;;;;6.93;3.35;;;;;;;15.90;76.30;94003.16;5144587;27;20023;-80
2023/05/27 06:22:27;;;;;;;4.72;3.22;;;;;;;16.01;76.13;94007.66;5126346;27;20390;-85
2023/05/27 06:24:52;;;;;;;8.77;2.90;;;;;;;16.14;74.72;94008.41;5145142;27;20015;-83
2023/05/27 06:27:17;;;;;;;7.03;3.30;;;;;;;16.12;74.55;94012.53;5126786;27;20025;-85
2023/05/27 06:29:44;;;;;;;7.18;3.75;;;;;;;16.19;75.25;94018.13;5144818;27;20340;-85
2023/05/27 06:32:09;;;;;;;5.50;3.58;;;;;;;16.22;74.51;94014.72;5144839;27;20022;-83
2023/05/27 06:34:35;;;;;;;6.15;3.30;;;;;;;16.32;74.48;94008.06;5126091;27;20281;-81
2023/05/27 06:37:00;;;;;;;6.65;3.08;;;;;;;16.29;74.61;94024.91;5144911;27;20194;-83
2023/05/27 06:39:26;;;;;;;5.95;3.55;;;;;;;16.30;74.54;94010.31;5145027;27;20239;-84
2023/05/27 06:41:52;;;;;;;5.82;3.40;;;;;;;16.37;74.83;94013.22;5144615;27;20019;-84
2023/05/27 06:44:17;;;;;;;5.88;3.10;;;;;;;16.44;74.38;94016.88;5144633;27;20034;-84
2023/05/27 06:46:43;;;;;;;11.48;3.10;;;;;;;16.54;72.94;94020.16;5146652;27;20038;-84
2023/05/27 06:49:08;;;;;;;6.95;3.33;;;;;;;16.64;72.79;94016.94;5145412;27;20014;-84
2023/05/27 06:51:34;;;;;;;9.38;3.05;;;;;;;16.73;73.31;94027.53;5145483;27;20022;-86
2023/05/27 06:54:00;;;;;;;7.57;4.30;;;;;;;16.83;72.19;94022.47;5144468;27;20308;-86
2023/05/27 06:56:25;;;;;;;6.78;3.70;;;;;;;16.99;73.06;94022.41;5144372;27;20036;-84
2023/05/27 06:58:51;;;;;;;14.77;3.67;;;;;;;17.16;70.66;94023.22;5145051;27;20052;-84
2023/05/27 07:01:16;;;;;;;13.48;4.55;;;;;;;17.35;70.26;94025.16;5144315;27;20211;-86
2023/05/27 07:03:42;;;;;;;22.35;4.97;;;;;;;17.48;69.91;94020.41;5147739;27;20336;-88
2023/05/27 07:06:07;;;;;;;6.38;3.58;;;;;;;17.57;69.26;94037.19;5145702;27;20021;-90
2023/05/27 07:08:33;;;;;;;10.35;3.50;;;;;;;17.65;68.90;94025.41;5145308;27;20052;-86
2023/05/27 07:10:58;;;;;;;7.13;3.38;;;;;;;17.61;68.26;94024.56;5144841;27;20094;-89
2023/05/27 07:13:24;;;;;;;7.68;3.92;;;;;;;17.65;67.59;94028.13;5145871;27;20019;-85
2023/05/27 07:15:50;;;;;;;8.05;3.50;;;;;;;17.64;67.00;94021.16;5146359;27;20019;-86
2023/05/27 07:18:16;;;;;;;6.20;3.20;;;;;;;17.69;66.98;94028.97;5144880;27;20264;-85
2023/05/27 07:20:41;;;;;;;6.15;3.38;;;;;;;17.73;67.40;94024.44;5144856;27;20019;-87
2023/05/27 07:23:07;;;;;;;8.10;3.50;;;;;;;17.71;68.26;94031.28;5144474;27;20039;-90
2023/05/27 07:25:34;;;;;;;10.60;4.07;;;;;;;17.74;69.08;94035.97;5126576;27;20043;-79
2023/05/27 07:28:00;;;;;;;5.68;3.88;;;;;;;17.76;69.05;94028.31;5143599;27;20068;-76
2023/05/27 07:30:28;;;;;;;8.65;4.32;;;;;;;17.78;68.52;94028.75;5143642;28;20023;-77
2023/05/27 07:32:54;;;;;;;21.80;4.90;;;;;;;17.78;69.23;94031.44;5143349;28;20221;-77
2023/05/27 07:35:19;;;;;;;11.93;5.15;;;;;;;17.76;69.34;94033.72;5143621;28;20102;-77
2023/05/27 07:37:45;;;;;;;8.73;5.20;;;;;;;17.75;69.64;94032.16;5143622;28;20100;-79
2023/05/27 07:40:10;;;;;;;8.88;4.90;;;;;;;17.80;69.38;94035.34;5125481;28;20039;-81
2023/05/27 07:42:36;;;;;;;11.63;4.57;;;;;;;17.83;68.09;94029.28;5143670;28;20046;-80
2023/05/27 07:45:05;;;;;;;10.30;4.60;;;;;;;17.88;68.53;94035.53;5143725;28;20026;-80
2023/05/27 07:47:31;;;;;;;9.98;4.30;;;;;;;17.93;66.74;94024.44;5143530;28;20023;-80
2023/05/27 07:49:56;;;;;;;13.02;4.63;;;;;;;18.01;67.03;94034.25;5143745;28;20023;-80
2023/05/27 07:52:22;;;;;;;12.35;4.10;;;;;;;18.18;65.81;94028.41;5143510;28;20122;-80
2023/05/27 07:54:48;;;;;;;11.38;3.75;;;;;;;18.31;65.96;94036.34;5143715;28;20023;-80
2023/05/27 07:57:16;;;;;;;7.78;3.33;;;;;;;18.44;63.56;94037.75;5143670;28;20035;-80
2023/05/27 07:59:42;;;;;;;8.10;3.42;;;;;;;18.54;62.43;94039.06;5143623;28;20396;-80
2023/05/27 08:02:08;;;;;;;11.68;4.10;;;;;;;18.67;62.01;94037.78;5143433;28;20031;-80
2023/05/27 08:04:34;;;;;;;6.32;3.40;;;;;;;18.75;61.97;94039.44;5143763;28;20026;-80
2023/05/27 08:06:59;;;;;;;8.90;4.30;;;;;;;18.80;63.07;94041.09;5145143;27;20022;-80
2023/05/27 08:09:25;;;;;;;28.30;6.13;;;;;;;18.74;65.41;94034.41;5147508;27;20368;-80
2023/05/27 08:11:50;;;;;;;15.13;5.13;;;;;;;18.81;65.53;94039.97;5147603;27;20030;-80
2023/05/27 08:14:16;;;;;;;10.05;3.70;;;;;;;18.94;64.99;94046.72;5147427;27;20068;-80
2023/05/27 08:16:42;;;;;;;6.32;3.40;;;;;;;19.06;60.66;94043.06;5147433;27;20023;-80
2023/05/27 08:19:07;;;;;;;21.90;4.22;;;;;;;19.23;60.07;94039.06;5147244;27;20030;-79
2023/05/27 08:21:32;;;;;;;8.05;2.88;;;;;;;19.39;60.27;94045.09;5147558;27;20019;-80
2023/05/27 08:23:58;;;;;;;8.43;2.65;;;;;;;19.57;59.98;94034.53;5146906;27;20054;-79
2023/05/27 08:26:23;;;;;;;8.48;2.80;;;;;;;19.72;59.30;94046.38;5147307;27;20063;-80
2023/05/27 08:28:49;;;;;;;7.47;2.80;;;;;;;19.89;59.02;94042.31;5129146;27;20035;-80
2023/05/27 08:31:14;;;;;;;7.97;2.83;;;;;;;20.06;57.61;94040.97;5147685;27;20114;-81
2023/05/27 08:33:40;;;;;;;6.90;3.15;;;;;;;20.18;57.17;94040.72;5129113;27;20098;-80
2023/05/27 08:36:06;;;;;;;7.38;2.92;;;;;;;20.35;56.75;94049.41;5146892;27;20022;-81
2023/05/27 08:38:31;;;;;;;11.68;3.22;;;;;;;20.41;54.92;94048.72;5147013;27;20209;-80
2023/05/27 08:40:58;;;;;;;9.35;2.88;;;;;;;20.51;55.02;94046.47;5147391;27;20022;-79
2023/05/27 08:43:24;;;;;;;6.63;2.70;;;;;;;20.51;52.49;94051.91;5128600;27;20035;-79
2023/05/27 08:45:50;;;;;;;7.82;3.05;;;;;;;20.48;53.97;94047.25;5146913;27;20377;-79
2023/05/27 08:48:16;;;;;;;9.25;3.08;;;;;;;20.44;53.00;94050.69;5147080;27;20015;-80
2023/05/27 08:50:41;;;;;;;5.97;3.33;;;;;;;20.44;53.65;94047.19;5146869;27;20015;-77
2023/05/27 08:53:08;;;;;;;9.68;3.42;;;;;;;20.51;54.62;94044.56;5146421;27;20039;-79
2023/05/27 08:55:38;;;;;;;5.57;3.42;;;;;;;20.62;55.07;94044.72;5146582;27;20076;-79
2023/05/27 08:58:05;;;;;;;15.30;3.75;;;;;;;20.72;54.27;94037.81;5128387;27;20011;-80
2023/05/27 09:00:30;;;;;;;11.57;3.70;;;;;;;20.77;53.63;94038.25;5146595;27;20027;-79
2023/05/27 09:02:59;;;;;;;7.60;3.88;;;;;;;20.79;53.41;94035.94;5146566;27;20212;-79
2023/05/27 09:05:25;;;;;;;19.08;3.53;;;;;;;20.81;52.25;94038.28;5128242;27;20019;-80
2023/05/27 09:07:51;;;;;;;8.50;3.58;;;;;;;20.89;53.65;94033.72;5147239;27;20019;-80
2023/05/27 09:10:16;;;;;;;9.27;3.53;;;;;;;20.89;51.40;94033.72;5146658;27;20282;-81
2023/05/27 09:12:45;;;;;;;10.57;4.22;;;;;;;20.70;52.41;94032.00;5128752;27;20030;-79
2023/05/27 09:15:12;;;;;;;8.68;3.55;;;;;;;20.51;53.26;94031.00;5128292;27;20034;-80
2023/05/27 09:17:46;;;;;;;7.97;3.58;;;;;;;20.60;53.64;94038.88;5146619;27;20027;-80
2023/05/27 09:20:12;;;;;;;10.98;3.75;;;;;;;20.67;52.79;94032.75;5127974;27;20094;-80
2023/05/27 09:22:38;;;;;;;4.93;3.10;;;;;;;20.69;51.82;94031.22;5146512;27;20233;-80
2023/05/27 09:25:04;;;;;;;6.85;2.92;;;;;;;20.76;52.46;94033.19;5146472;27;20022;-80
2023/05/27 09:27:31;;;;;;;15.85;3.70;;;;;;;20.92;51.50;94028.31;5146366;27;20027;-79
2023/05/27 09:29:58;;;;;;;13.02;3.70;;;;;;;21.01;51.72;94026.06;5127994;27;20022;-80
2023/05/27 09:32:30;;;;;;;15.25;3.95;;;;;;;21.12;52.09;94022.66;5128796;27;20100;-78
2023/05/27 09:34:56;;;;;;;10.05;4.60;;;;;;;21.12;51.80;94018.03;5146407;27;20065;-78
2023/05/27 09:37:32;;;;;;;9.40;4.20;;;;;;;21.19;52.06;94014.59;5146102;27;20044;-77
2023/05/27 09:40:10;;;;;;;7.63;3.65;;;;;;;21.30;51.72;94018.16;5145686;27;20023;-74
2023/05/27 09:42:41;;;;;;;9.60;4.40;;;;;;;21.41;51.94;94015.50;5145727;27;20023;-77
2023/05/27 09:45:12;;;;;;;18.50;4.20;;;;;;;21.56;51.99;94016.41;5145948;27;20026;-77
2023/05/27 09:47:42;;;;;;;6.82;3.47;;;;;;;21.63;51.36;94011.78;5149862;27;20198;-77
2023/05/27 09:50:11;;;;;;;7.82;3.53;;;;;;;21.83;50.26;94014.97;5154579;27;20030;-77
2023/05/27 09:52:39;;;;;;;19.13;4.43;;;;;;;21.99;51.63;94011.19;5128278;27;20034;-77
2023/05/27 09:55:09;;;;;;;9.93;4.18;;;;;;;22.13;50.85;94000.38;5145318;27;20365;-79
2023/05/27 09:57:36;;;;;;;7.05;3.88;;;;;;;22.40;50.01;94002.81;5146637;27;20316;-78
2023/05/27 10:00:15;;;;;;;16.58;5.47;;;;;;;22.74;48.42;94010.63;5145695;27;20086;-75
2023/05/27 10:02:45;;;;;;;7.75;3.95;;;;;;;22.94;48.54;94009.09;5126966;27;20027;-76
2023/05/27 10:05:16;;;;;;;6.43;4.00;;;;;;;23.07;46.32;94011.44;5146497;27;20015;-78
2023/05/27 10:07:45;;;;;;;6.40;4.05;;;;;;;23.03;46.47;94016.88;5145817;27;20023;-77
2023/05/27 10:10:14;;;;;;;5.43;2.80;;;;;;;22.88;45.64;94009.84;5145568;27;20132;-78
2023/05/27 10:12:41;;;;;;;5.97;3.50;;;;;;;23.07;46.14;94006.78;5126738;27;20083;-79
2023/05/27 10:15:07;;;;;;;10.43;3.63;;;;;;;23.25;45.61;94006.75;5145253;27;20046;-79
2023/05/27 10:17:47;;;;;;;8.57;3.25;;;;;;;23.43;46.01;94004.78;5145415;27;20015;-79
2023/05/27 10:20:26;;;;;;;6.00;3.28;;;;;;;23.71;44.36;93996.94;5145670;27;20301;-81
2023/05/27 10:22:51;;;;;;;6.47;4.05;;;;;;;23.92;45.34;94002.34;5127515;27;20058;-81
2023/05/27 10:25:17;;;;;;;8.60;4.30;;;;;;;24.15;45.08;93999.13;5145165;27;20333;-79
2023/05/27 10:27:46;;;;;;;7.85;3.67;;;;;;;24.11;42.90;94003.81;5126918;27;20317;-80
2023/05/27 10:30:14;;;;;;;7.35;3.97;;;;;;;24.26;43.98;93996.34;5143739;27;20027;-81
2023/05/27 10:32:57;;;;;;;8.15;3.92;;;;;;;24.32;42.90;93994.00;5145437;27;20034;-78
2023/05/27 10:35:27;;;;;;;8.98;3.53;;;;;;;24.29;43.12;93994.81;5145843;27;20027;-80
2023/05/27 10:37:53;;;;;;;8.40;4.10;;;;;;;24.30;43.51;93988.97;5144920;27;20026;-77
2023/05/27 10:40:25;;;;;;;10.27;3.92;;;;;;;24.42;42.79;93985.00;5144764;27;20019;-79
2023/05/27 10:43:01;;;;;;;36.08;4.38;;;;;;;24.56;42.71;93986.88;5145090;27;20092;-81
2023/05/27 10:45:34;;;;;;;8.90;3.75;;;;;;;24.58;42.91;93985.31;5144760;27;20312;-81
2023/05/27 10:48:00;;;;;;;7.38;3.85;;;;;;;24.61;41.80;93984.53;5144729;27;20022;-84
2023/05/27 10:50:34;;;;;;;12.68;4.47;;;;;;;24.51;42.00;93974.47;5144350;27;20026;-81
2023/05/27 10:53:01;;;;;;;8.05;3.90;;;;;;;24.50;43.05;93986.53;5126306;27;20324;-80
2023/05/27 10:55:26;;;;;;;6.95;3.63;;;;;;;24.49;41.77;93981.47;5144467;27;20054;-80
2023/05/27 10:57:52;;;;;;;10.13;4.30;;;;;;;24.38;42.23;93986.97;5144426;27;20333;-80
2023/05/27 11:00:20;;;;;;;5.30;3.63;;;;;;;24.58;41.74;93973.63;5144991;27;20132;-81
2023/05/27 11:02:46;;;;;;;7.85;3.50;;;;;;;24.62;41.88;93964.25;5144766;27;20379;-83
2023/05/27 11:05:15;;;;;;;14.50;3.95;;;;;;;24.66;42.21;93975.13;5144302;27;20038;-83
2023/05/27 11:07:40;;;;;;;10.18;3.33;;;;;;;24.74;41.35;93970.41;5144542;27;20217;-80
2023/05/27 11:10:07;;;;;;;14.77;4.20;;;;;;;24.77;41.26;93972.31;5126357;27;20091;-80
2023/05/27 11:12:32;;;;;;;9.98;4.20;;;;;;;24.82;41.11;93963.72;5125909;27;20118;-80
2023/05/27 11:14:58;;;;;;;7.82;3.53;;;;;;;24.95;39.58;93967.53;5143870;27;20026;-81
2023/05/27 11:17:25;;;;;;;8.48;3.47;;;;;;;25.05;39.52;93967.81;5144414;27;20274;-75
2023/05/27 11:19:51;;;;;;;6.68;3.88;;;;;;;25.03;40.08;93954.59;5144153;27;20317;-76
2023/05/27 11:22:19;;;;;;;9.63;4.28;;;;;;;25.09;40.25;93958.44;5143726;27;20278;-77
2023/05/27 11:25:02;;;;;;;6.10;3.58;;;;;;;25.08;41.32;93958.84;5143711;27;20266;-76
2023/05/27 11:27:35;;;;;;;8.25;3.75;;;;;;;25.02;40.17;93963.97;5143659;27;20054;-76
2023/05/27 11:30:09;;;;;;;6.30;3.45;;;;;;;25.11;40.50;93949.84;5143536;28;20023;-75